Terminal Aerodrome Forecast
Issued by NWS

Home | Current Version | Previous Version | Text Only | Print | Product List | Glossary On
Versions: 1 2 3 4 5 6 7 8 9 10 11 12 13 14 15 16 17 18 19 20 21
000
FTUS44 KLIX 292300
TAFHUM
TAF
KHUM 292332Z 3000/3024 11007KT 6SM -SHRA SCT028 BKN050
      TEMPO 3000/3004 3SM -SHRA BKN028
     FM300500 12006KT P6SM SCT025 BKN100
     FM301400 16011KT 6SM -SHRA BKN025 OVC050
      TEMPO 3016/3020 2SM TSRA BKN025CB=

USA.gov is the U.S. government's official web portal to all federal, state and local government web resources and services.